sensor_id;sensor_type;location;lat;lon;timestamp;P1;durP1;ratioP1;P2;durP2;ratioP2
4424;SDS011;2225;53.568;13.266;2023-05-10T00:01:27;9.97;;;5.20;;
4424;SDS011;2225;53.568;13.266;2023-05-10T00:03:54;16.10;;;5.90;;
4424;SDS011;2225;53.568;13.266;2023-05-10T00:06:21;14.13;;;5.63;;
4424;SDS011;2225;53.568;13.266;2023-05-10T00:08:48;18.37;;;6.20;;
4424;SDS011;2225;53.568;13.266;2023-05-10T00:11:15;16.13;;;5.80;;
4424;SDS011;2225;53.568;13.266;2023-05-10T00:13:42;20.23;;;6.50;;
4424;SDS011;2225;53.568;13.266;2023-05-10T00:16:09;10.50;;;5.47;;
4424;SDS011;2225;53.568;13.266;2023-05-10T00:18:36;14.20;;;5.57;;
4424;SDS011;2225;53.568;13.266;2023-05-10T00:21:03;13.80;;;6.43;;
4424;SDS011;2225;53.568;13.266;2023-05-10T00:23:31;14.17;;;5.77;;
4424;SDS011;2225;53.568;13.266;2023-05-10T00:25:57;17.60;;;6.10;;
4424;SDS011;2225;53.568;13.266;2023-05-10T00:28:24;16.17;;;6.07;;
4424;SDS011;2225;53.568;13.266;2023-05-10T00:30:55;16.20;;;6.37;;
4424;SDS011;2225;53.568;13.266;2023-05-10T00:33:22;14.10;;;6.47;;
4424;SDS011;2225;53.568;13.266;2023-05-10T00:35:49;12.40;;;6.30;;
4424;SDS011;2225;53.568;13.266;2023-05-10T00:38:16;12.50;;;6.23;;
4424;SDS011;2225;53.568;13.266;2023-05-10T00:40:43;16.57;;;6.30;;
4424;SDS011;2225;53.568;13.266;2023-05-10T00:43:18;14.00;;;7.00;;
4424;SDS011;2225;53.568;13.266;2023-05-10T00:45:46;15.07;;;6.70;;
4424;SDS011;2225;53.568;13.266;2023-05-10T00:48:13;14.40;;;6.60;;
4424;SDS011;2225;53.568;13.266;2023-05-10T00:50:40;15.30;;;7.50;;
4424;SDS011;2225;53.568;13.266;2023-05-10T00:53:07;14.70;;;7.00;;
4424;SDS011;2225;53.568;13.266;2023-05-10T00:55:35;14.20;;;7.43;;
4424;SDS011;2225;53.568;13.266;2023-05-10T00:58:02;38.80;;;8.07;;
4424;SDS011;2225;53.568;13.266;2023-05-10T01:00:30;19.63;;;7.93;;
4424;SDS011;2225;53.568;13.266;2023-05-10T01:02:59;16.23;;;7.20;;
4424;SDS011;2225;53.568;13.266;2023-05-10T01:05:26;13.20;;;6.70;;
4424;SDS011;2225;53.568;13.266;2023-05-10T01:07:53;15.27;;;6.43;;
4424;SDS011;2225;53.568;13.266;2023-05-10T01:10:20;13.30;;;7.00;;
4424;SDS011;2225;53.568;13.266;2023-05-10T01:12:48;13.80;;;7.40;;
4424;SDS011;2225;53.568;13.266;2023-05-10T01:15:15;17.03;;;7.73;;
4424;SDS011;2225;53.568;13.266;2023-05-10T01:17:44;14.63;;;7.40;;
4424;SDS011;2225;53.568;13.266;2023-05-10T01:20:12;13.87;;;7.50;;
4424;SDS011;2225;53.568;13.266;2023-05-10T01:22:59;17.30;;;6.60;;
4424;SDS011;2225;53.568;13.266;2023-05-10T01:25:59;13.47;;;6.83;;
4424;SDS011;2225;53.568;13.266;2023-05-10T01:35:15;15.40;;;7.43;;
4424;SDS011;2225;53.568;13.266;2023-05-10T01:37:59;34.67;;;7.67;;
4424;SDS011;2225;53.568;13.266;2023-05-10T01:40:52;14.17;;;7.43;;
4424;SDS011;2225;53.568;13.266;2023-05-10T01:46:28;27.90;;;8.23;;
4424;SDS011;2225;53.568;13.266;2023-05-10T01:49:08;18.00;;;6.90;;
4424;SDS011;2225;53.568;13.266;2023-05-10T01:51:45;16.07;;;7.00;;
4424;SDS011;2225;53.568;13.266;2023-05-10T01:54:21;17.80;;;7.87;;
4424;SDS011;2225;53.568;13.266;2023-05-10T01:56:52;15.70;;;8.03;;
4424;SDS011;2225;53.568;13.266;2023-05-10T01:59:28;18.40;;;7.43;;
4424;SDS011;2225;53.568;13.266;2023-05-10T02:02:02;15.87;;;7.30;;
4424;SDS011;2225;53.568;13.266;2023-05-10T02:04:32;14.73;;;7.60;;
4424;SDS011;2225;53.568;13.266;2023-05-10T02:07:03;14.73;;;7.27;;
4424;SDS011;2225;53.568;13.266;2023-05-10T02:09:32;15.00;;;7.60;;
4424;SDS011;2225;53.568;13.266;2023-05-10T02:12:01;13.80;;;6.63;;
4424;SDS011;2225;53.568;13.266;2023-05-10T02:14:32;19.23;;;7.13;;
4424;SDS011;2225;53.568;13.266;2023-05-10T02:17:03;15.60;;;8.20;;
4424;SDS011;2225;53.568;13.266;2023-05-10T02:19:32;15.63;;;6.93;;
4424;SDS011;2225;53.568;13.266;2023-05-10T02:22:00;17.47;;;7.60;;
4424;SDS011;2225;53.568;13.266;2023-05-10T02:24:28;13.70;;;7.40;;
4424;SDS011;2225;53.568;13.266;2023-05-10T02:26:56;25.60;;;7.43;;
4424;SDS011;2225;53.568;13.266;2023-05-10T02:29:24;13.67;;;7.10;;
4424;SDS011;2225;53.568;13.266;2023-05-10T02:31:53;16.00;;;7.00;;
4424;SDS011;2225;53.568;13.266;2023-05-10T02:34:22;22.40;;;7.40;;
4424;SDS011;2225;53.568;13.266;2023-05-10T02:36:52;13.10;;;6.90;;
4424;SDS011;2225;53.568;13.266;2023-05-10T02:39:20;16.80;;;8.00;;
4424;SDS011;2225;53.568;13.266;2023-05-10T02:41:48;18.87;;;8.50;;
4424;SDS011;2225;53.568;13.266;2023-05-10T02:44:17;16.30;;;8.03;;
4424;SDS011;2225;53.568;13.266;2023-05-10T02:46:46;15.53;;;7.87;;
4424;SDS011;2225;53.568;13.266;2023-05-10T02:49:14;18.17;;;7.50;;
4424;SDS011;2225;53.568;13.266;2023-05-10T02:51:43;14.90;;;6.67;;
4424;SDS011;2225;53.568;13.266;2023-05-10T02:54:20;12.87;;;7.30;;
4424;SDS011;2225;53.568;13.266;2023-05-10T02:56:54;14.37;;;8.53;;
4424;SDS011;2225;53.568;13.266;2023-05-10T02:59:26;15.40;;;8.10;;
4424;SDS011;2225;53.568;13.266;2023-05-10T03:01:53;22.00;;;8.37;;
4424;SDS011;2225;53.568;13.266;2023-05-10T03:04:20;14.10;;;7.80;;
4424;SDS011;2225;53.568;13.266;2023-05-10T03:06:48;24.60;;;7.20;;
4424;SDS011;2225;53.568;13.266;2023-05-10T03:09:15;23.13;;;8.00;;
4424;SDS011;2225;53.568;13.266;2023-05-10T03:11:55;16.97;;;8.50;;
4424;SDS011;2225;53.568;13.266;2023-05-10T03:14:42;22.77;;;7.73;;
4424;SDS011;2225;53.568;13.266;2023-05-10T03:20:16;17.20;;;8.47;;
4424;SDS011;2225;53.568;13.266;2023-05-10T03:22:52;32.47;;;8.50;;
4424;SDS011;2225;53.568;13.266;2023-05-10T03:25:23;15.57;;;8.13;;
4424;SDS011;2225;53.568;13.266;2023-05-10T03:27:52;14.20;;;7.90;;
4424;SDS011;2225;53.568;13.266;2023-05-10T03:30:20;17.33;;;7.97;;
4424;SDS011;2225;53.568;13.266;2023-05-10T03:32:47;18.67;;;8.40;;
4424;SDS011;2225;53.568;13.266;2023-05-10T03:35:16;18.23;;;8.50;;
4424;SDS011;2225;53.568;13.266;2023-05-10T03:37:43;16.27;;;8.20;;
4424;SDS011;2225;53.568;13.266;2023-05-10T03:40:10;16.80;;;8.07;;
4424;SDS011;2225;53.568;13.266;2023-05-10T03:42:40;16.20;;;8.53;;
4424;SDS011;2225;53.568;13.266;2023-05-10T03:45:07;17.03;;;8.60;;
4424;SDS011;2225;53.568;13.266;2023-05-10T03:47:35;30.37;;;8.80;;
4424;SDS011;2225;53.568;13.266;2023-05-10T03:50:03;18.63;;;8.83;;
4424;SDS011;2225;53.568;13.266;2023-05-10T03:52:31;18.33;;;8.33;;
4424;SDS011;2225;53.568;13.266;2023-05-10T03:54:58;17.87;;;8.90;;
4424;SDS011;2225;53.568;13.266;2023-05-10T03:57:25;28.90;;;8.10;;
4424;SDS011;2225;53.568;13.266;2023-05-10T03:59:52;27.53;;;9.90;;
4424;SDS011;2225;53.568;13.266;2023-05-10T04:02:19;16.33;;;8.63;;
4424;SDS011;2225;53.568;13.266;2023-05-10T04:04:46;19.10;;;9.00;;
4424;SDS011;2225;53.568;13.266;2023-05-10T04:07:14;16.53;;;9.03;;
4424;SDS011;2225;53.568;13.266;2023-05-10T04:09:41;20.13;;;8.37;;
4424;SDS011;2225;53.568;13.266;2023-05-10T04:12:08;21.93;;;8.67;;
4424;SDS011;2225;53.568;13.266;2023-05-10T04:14:36;19.00;;;9.93;;
4424;SDS011;2225;53.568;13.266;2023-05-10T04:17:03;16.70;;;9.40;;
4424;SDS011;2225;53.568;13.266;2023-05-10T04:19:30;16.90;;;8.60;;
4424;SDS011;2225;53.568;13.266;2023-05-10T04:21:58;17.87;;;8.00;;
4424;SDS011;2225;53.568;13.266;2023-05-10T04:24:25;16.80;;;9.77;;
4424;SDS011;2225;53.568;13.266;2023-05-10T04:26:53;19.57;;;8.60;;
4424;SDS011;2225;53.568;13.266;2023-05-10T04:29:23;14.10;;;8.00;;
4424;SDS011;2225;53.568;13.266;2023-05-10T04:31:50;20.00;;;7.93;;
4424;SDS011;2225;53.568;13.266;2023-05-10T04:34:17;16.23;;;9.00;;
4424;SDS011;2225;53.568;13.266;2023-05-10T04:36:44;23.60;;;8.90;;
4424;SDS011;2225;53.568;13.266;2023-05-10T04:39:11;18.53;;;8.17;;
4424;SDS011;2225;53.568;13.266;2023-05-10T04:41:39;20.40;;;9.20;;
4424;SDS011;2225;53.568;13.266;2023-05-10T04:44:06;14.83;;;8.17;;
4424;SDS011;2225;53.568;13.266;2023-05-10T04:46:33;16.33;;;8.70;;
4424;SDS011;2225;53.568;13.266;2023-05-10T04:49:00;19.90;;;9.40;;
4424;SDS011;2225;53.568;13.266;2023-05-10T04:51:27;17.73;;;7.70;;
4424;SDS011;2225;53.568;13.266;2023-05-10T04:53:54;22.20;;;8.70;;
4424;SDS011;2225;53.568;13.266;2023-05-10T04:56:31;15.23;;;8.13;;
4424;SDS011;2225;53.568;13.266;2023-05-10T04:58:58;17.77;;;8.20;;
4424;SDS011;2225;53.568;13.266;2023-05-10T05:01:25;16.20;;;8.57;;
4424;SDS011;2225;53.568;13.266;2023-05-10T05:03:52;15.20;;;8.80;;
4424;SDS011;2225;53.568;13.266;2023-05-10T05:06:19;17.30;;;8.17;;
4424;SDS011;2225;53.568;13.266;2023-05-10T05:08:51;17.00;;;8.03;;
4424;SDS011;2225;53.568;13.266;2023-05-10T05:11:18;15.40;;;7.87;;
4424;SDS011;2225;53.568;13.266;2023-05-10T05:13:44;20.00;;;8.87;;
4424;SDS011;2225;53.568;13.266;2023-05-10T05:16:11;18.27;;;8.00;;
4424;SDS011;2225;53.568;13.266;2023-05-10T05:18:38;15.50;;;8.10;;
4424;SDS011;2225;53.568;13.266;2023-05-10T05:21:15;14.00;;;8.60;;
4424;SDS011;2225;53.568;13.266;2023-05-10T05:23:42;14.30;;;6.90;;
4424;SDS011;2225;53.568;13.266;2023-05-10T05:26:09;19.63;;;8.63;;
4424;SDS011;2225;53.568;13.266;2023-05-10T05:28:37;18.93;;;8.30;;
4424;SDS011;2225;53.568;13.266;2023-05-10T05:31:05;20.90;;;7.80;;
4424;SDS011;2225;53.568;13.266;2023-05-10T05:33:35;14.73;;;7.80;;
4424;SDS011;2225;53.568;13.266;2023-05-10T05:36:03;31.33;;;8.00;;
4424;SDS011;2225;53.568;13.266;2023-05-10T05:38:31;17.03;;;7.87;;
4424;SDS011;2225;53.568;13.266;2023-05-10T05:40:58;14.23;;;7.50;;
4424;SDS011;2225;53.568;13.266;2023-05-10T05:43:25;13.70;;;6.73;;
4424;SDS011;2225;53.568;13.266;2023-05-10T05:45:52;17.53;;;7.90;;
4424;SDS011;2225;53.568;13.266;2023-05-10T05:48:20;18.03;;;8.10;;
4424;SDS011;2225;53.568;13.266;2023-05-10T05:50:47;15.77;;;7.83;;
4424;SDS011;2225;53.568;13.266;2023-05-10T05:53:14;17.90;;;7.30;;
4424;SDS011;2225;53.568;13.266;2023-05-10T05:55:51;16.57;;;7.87;;
4424;SDS011;2225;53.568;13.266;2023-05-10T05:58:20;16.77;;;6.80;;
4424;SDS011;2225;53.568;13.266;2023-05-10T06:00:51;15.20;;;7.10;;
4424;SDS011;2225;53.568;13.266;2023-05-10T06:03:18;14.20;;;6.60;;
4424;SDS011;2225;53.568;13.266;2023-05-10T06:05:46;14.90;;;7.50;;
4424;SDS011;2225;53.568;13.266;2023-05-10T06:08:13;14.27;;;7.47;;
4424;SDS011;2225;53.568;13.266;2023-05-10T06:10:40;12.97;;;6.70;;
4424;SDS011;2225;53.568;13.266;2023-05-10T06:13:06;12.87;;;7.00;;
4424;SDS011;2225;53.568;13.266;2023-05-10T06:15:33;14.17;;;7.50;;
4424;SDS011;2225;53.568;13.266;2023-05-10T06:18:00;12.47;;;7.07;;
4424;SDS011;2225;53.568;13.266;2023-05-10T06:20:27;14.83;;;7.70;;
4424;SDS011;2225;53.568;13.266;2023-05-10T06:22:54;13.50;;;7.63;;
4424;SDS011;2225;53.568;13.266;2023-05-10T06:25:21;12.00;;;6.83;;
4424;SDS011;2225;53.568;13.266;2023-05-10T06:27:48;14.30;;;6.73;;
4424;SDS011;2225;53.568;13.266;2023-05-10T06:30:19;12.23;;;6.90;;
4424;SDS011;2225;53.568;13.266;2023-05-10T06:32:46;13.90;;;7.33;;
4424;SDS011;2225;53.568;13.266;2023-05-10T06:35:13;15.10;;;7.37;;
4424;SDS011;2225;53.568;13.266;2023-05-10T06:37:40;13.00;;;7.20;;
4424;SDS011;2225;53.568;13.266;2023-05-10T06:40:07;14.40;;;6.57;;
4424;SDS011;2225;53.568;13.266;2023-05-10T06:42:35;17.67;;;7.00;;
4424;SDS011;2225;53.568;13.266;2023-05-10T06:45:02;17.47;;;7.83;;
4424;SDS011;2225;53.568;13.266;2023-05-10T06:47:29;11.50;;;6.40;;
4424;SDS011;2225;53.568;13.266;2023-05-10T06:49:56;14.87;;;7.13;;
4424;SDS011;2225;53.568;13.266;2023-05-10T06:52:23;12.93;;;7.13;;
4424;SDS011;2225;53.568;13.266;2023-05-10T06:54:50;13.23;;;7.07;;
4424;SDS011;2225;53.568;13.266;2023-05-10T06:57:17;18.40;;;7.53;;
4424;SDS011;2225;53.568;13.266;2023-05-10T06:59:56;15.57;;;6.43;;
4424;SDS011;2225;53.568;13.266;2023-05-10T07:02:23;15.07;;;6.90;;
4424;SDS011;2225;53.568;13.266;2023-05-10T07:04:50;11.60;;;6.37;;
4424;SDS011;2225;53.568;13.266;2023-05-10T07:07:18;12.87;;;7.23;;
4424;SDS011;2225;53.568;13.266;2023-05-10T07:09:45;17.43;;;7.30;;
4424;SDS011;2225;53.568;13.266;2023-05-10T07:12:12;19.27;;;7.13;;
4424;SDS011;2225;53.568;13.266;2023-05-10T07:14:41;12.97;;;6.37;;
4424;SDS011;2225;53.568;13.266;2023-05-10T07:17:08;11.27;;;6.87;;
4424;SDS011;2225;53.568;13.266;2023-05-10T07:19:36;30.83;;;6.67;;
4424;SDS011;2225;53.568;13.266;2023-05-10T07:22:02;15.83;;;7.10;;
4424;SDS011;2225;53.568;13.266;2023-05-10T07:24:29;15.20;;;7.27;;
4424;SDS011;2225;53.568;13.266;2023-05-10T07:26:57;17.27;;;6.90;;
4424;SDS011;2225;53.568;13.266;2023-05-10T07:29:24;22.77;;;6.60;;
4424;SDS011;2225;53.568;13.266;2023-05-10T07:31:51;17.67;;;6.50;;
4424;SDS011;2225;53.568;13.266;2023-05-10T07:34:20;11.90;;;6.27;;
4424;SDS011;2225;53.568;13.266;2023-05-10T07:36:47;16.90;;;6.43;;
4424;SDS011;2225;53.568;13.266;2023-05-10T07:39:14;14.47;;;6.80;;
4424;SDS011;2225;53.568;13.266;2023-05-10T07:41:52;12.60;;;5.90;;
4424;SDS011;2225;53.568;13.266;2023-05-10T07:44:18;14.10;;;7.07;;
4424;SDS011;2225;53.568;13.266;2023-05-10T07:46:46;18.13;;;6.30;;
4424;SDS011;2225;53.568;13.266;2023-05-10T07:49:14;13.87;;;6.13;;
4424;SDS011;2225;53.568;13.266;2023-05-10T07:51:41;11.10;;;6.37;;
4424;SDS011;2225;53.568;13.266;2023-05-10T07:54:08;11.70;;;6.93;;
4424;SDS011;2225;53.568;13.266;2023-05-10T07:56:35;18.87;;;6.30;;
4424;SDS011;2225;53.568;13.266;2023-05-10T07:59:03;15.90;;;6.90;;
4424;SDS011;2225;53.568;13.266;2023-05-10T08:01:33;10.87;;;5.90;;
4424;SDS011;2225;53.568;13.266;2023-05-10T08:04:01;14.90;;;5.87;;
4424;SDS011;2225;53.568;13.266;2023-05-10T08:06:28;16.07;;;5.80;;
4424;SDS011;2225;53.568;13.266;2023-05-10T08:08:56;15.20;;;5.90;;
4424;SDS011;2225;53.568;13.266;2023-05-10T08:11:23;16.30;;;6.13;;
4424;SDS011;2225;53.568;13.266;2023-05-10T08:13:51;12.53;;;5.87;;
4424;SDS011;2225;53.568;13.266;2023-05-10T08:16:18;15.47;;;6.60;;
4424;SDS011;2225;53.568;13.266;2023-05-10T08:18:45;13.23;;;6.70;;
4424;SDS011;2225;53.568;13.266;2023-05-10T08:21:13;17.73;;;5.70;;
4424;SDS011;2225;53.568;13.266;2023-05-10T08:23:40;11.53;;;4.87;;
4424;SDS011;2225;53.568;13.266;2023-05-10T08:26:09;10.13;;;5.30;;
4424;SDS011;2225;53.568;13.266;2023-05-10T08:28:36;17.90;;;6.20;;
4424;SDS011;2225;53.568;13.266;2023-05-10T08:31:04;14.80;;;5.70;;
4424;SDS011;2225;53.568;13.266;2023-05-10T08:33:31;13.30;;;5.60;;
4424;SDS011;2225;53.568;13.266;2023-05-10T08:35:58;13.00;;;5.90;;
4424;SDS011;2225;53.568;13.266;2023-05-10T08:38:25;12.83;;;5.77;;
4424;SDS011;2225;53.568;13.266;2023-05-10T08:40:52;10.50;;;5.30;;
4424;SDS011;2225;53.568;13.266;2023-05-10T08:43:28;8.90;;;4.90;;
4424;SDS011;2225;53.568;13.266;2023-05-10T08:45:56;28.60;;;5.90;;
4424;SDS011;2225;53.568;13.266;2023-05-10T08:48:27;8.93;;;4.80;;
4424;SDS011;2225;53.568;13.266;2023-05-10T08:50:57;11.70;;;5.33;;
4424;SDS011;2225;53.568;13.266;2023-05-10T08:53:26;19.60;;;5.10;;
4424;SDS011;2225;53.568;13.266;2023-05-10T08:55:55;12.03;;;5.40;;
4424;SDS011;2225;53.568;13.266;2023-05-10T08:58:22;16.37;;;5.47;;
4424;SDS011;2225;53.568;13.266;2023-05-10T09:00:49;10.63;;;4.80;;
4424;SDS011;2225;53.568;13.266;2023-05-10T09:03:19;53.97;;;6.40;;
4424;SDS011;2225;53.568;13.266;2023-05-10T09:05:46;10.53;;;5.03;;
4424;SDS011;2225;53.568;13.266;2023-05-10T09:08:15;12.50;;;5.00;;
4424;SDS011;2225;53.568;13.266;2023-05-10T09:10:45;12.83;;;4.87;;
4424;SDS011;2225;53.568;13.266;2023-05-10T09:13:14;15.97;;;5.63;;
4424;SDS011;2225;53.568;13.266;2023-05-10T09:15:43;14.57;;;4.80;;
4424;SDS011;2225;53.568;13.266;2023-05-10T09:18:11;9.00;;;4.50;;
4424;SDS011;2225;53.568;13.266;2023-05-10T09:20:38;20.13;;;4.30;;
4424;SDS011;2225;53.568;13.266;2023-05-10T09:23:05;13.30;;;3.87;;
4424;SDS011;2225;53.568;13.266;2023-05-10T09:25:33;17.20;;;4.10;;
4424;SDS011;2225;53.568;13.266;2023-05-10T09:27:59;11.80;;;4.43;;
4424;SDS011;2225;53.568;13.266;2023-05-10T09:30:27;9.57;;;4.60;;
4424;SDS011;2225;53.568;13.266;2023-05-10T09:32:57;9.10;;;4.10;;
4424;SDS011;2225;53.568;13.266;2023-05-10T09:35:27;11.00;;;4.70;;
4424;SDS011;2225;53.568;13.266;2023-05-10T09:38:00;10.80;;;4.47;;
4424;SDS011;2225;53.568;13.266;2023-05-10T09:40:30;12.80;;;4.40;;
4424;SDS011;2225;53.568;13.266;2023-05-10T09:43:01;11.97;;;4.27;;
4424;SDS011;2225;53.568;13.266;2023-05-10T09:45:36;9.57;;;3.97;;
4424;SDS011;2225;53.568;13.266;2023-05-10T09:48:04;8.47;;;4.13;;
4424;SDS011;2225;53.568;13.266;2023-05-10T09:50:32;13.03;;;4.20;;
4424;SDS011;2225;53.568;13.266;2023-05-10T09:53:01;15.70;;;3.83;;
4424;SDS011;2225;53.568;13.266;2023-05-10T09:58:07;19.13;;;5.60;;
4424;SDS011;2225;53.568;13.266;2023-05-10T10:00:37;12.23;;;4.27;;
4424;SDS011;2225;53.568;13.266;2023-05-10T10:03:12;14.10;;;4.40;;
4424;SDS011;2225;53.568;13.266;2023-05-10T10:05:43;14.23;;;3.93;;
4424;SDS011;2225;53.568;13.266;2023-05-10T10:08:12;10.10;;;4.43;;
4424;SDS011;2225;53.568;13.266;2023-05-10T10:10:40;14.50;;;4.07;;
4424;SDS011;2225;53.568;13.266;2023-05-10T10:13:07;18.30;;;4.43;;
4424;SDS011;2225;53.568;13.266;2023-05-10T10:15:34;7.80;;;3.80;;
4424;SDS011;2225;53.568;13.266;2023-05-10T10:18:02;12.10;;;4.40;;
4424;SDS011;2225;53.568;13.266;2023-05-10T10:20:33;16.23;;;4.03;;
4424;SDS011;2225;53.568;13.266;2023-05-10T10:22:59;9.47;;;3.80;;
4424;SDS011;2225;53.568;13.266;2023-05-10T10:25:26;9.83;;;3.90;;
4424;SDS011;2225;53.568;13.266;2023-05-10T10:33:26;19.07;;;3.50;;
4424;SDS011;2225;53.568;13.266;2023-05-10T10:36:03;14.40;;;5.07;;
4424;SDS011;2225;53.568;13.266;2023-05-10T10:38:37;9.27;;;4.20;;
4424;SDS011;2225;53.568;13.266;2023-05-10T10:41:32;13.77;;;4.00;;
4424;SDS011;2225;53.568;13.266;2023-05-10T10:49:42;11.37;;;4.50;;
4424;SDS011;2225;53.568;13.266;2023-05-10T10:54:53;31.97;;;4.10;;
4424;SDS011;2225;53.568;13.266;2023-05-10T10:57:33;13.53;;;4.20;;
4424;SDS011;2225;53.568;13.266;2023-05-10T11:03:06;16.77;;;4.67;;
4424;SDS011;2225;53.568;13.266;2023-05-10T11:05:47;12.43;;;3.90;;
4424;SDS011;2225;53.568;13.266;2023-05-10T11:08:28;9.80;;;3.70;;
4424;SDS011;2225;53.568;13.266;2023-05-10T11:13:39;10.93;;;3.70;;
4424;SDS011;2225;53.568;13.266;2023-05-10T11:19:03;37.07;;;3.70;;
4424;SDS011;2225;53.568;13.266;2023-05-10T11:21:32;15.07;;;4.10;;
4424;SDS011;2225;53.568;13.266;2023-05-10T11:24:01;11.80;;;4.37;;
4424;SDS011;2225;53.568;13.266;2023-05-10T11:26:34;13.00;;;4.70;;
4424;SDS011;2225;53.568;13.266;2023-05-10T11:29:02;12.17;;;4.30;;
4424;SDS011;2225;53.568;13.266;2023-05-10T11:31:31;12.20;;;3.90;;
4424;SDS011;2225;53.568;13.266;2023-05-10T11:33:58;8.33;;;3.17;;
4424;SDS011;2225;53.568;13.266;2023-05-10T11:36:28;11.33;;;3.60;;
4424;SDS011;2225;53.568;13.266;2023-05-10T11:38:59;7.33;;;3.63;;
4424;SDS011;2225;53.568;13.266;2023-05-10T11:41:27;49.07;;;4.70;;
4424;SDS011;2225;53.568;13.266;2023-05-10T11:43:56;6.70;;;3.33;;
4424;SDS011;2225;53.568;13.266;2023-05-10T11:46:25;6.83;;;2.90;;
4424;SDS011;2225;53.568;13.266;2023-05-10T11:48:55;7.13;;;3.30;;
4424;SDS011;2225;53.568;13.266;2023-05-10T11:51:28;10.67;;;3.50;;
4424;SDS011;2225;53.568;13.266;2023-05-10T11:53:56;8.47;;;3.53;;
4424;SDS011;2225;53.568;13.266;2023-05-10T11:56:23;9.90;;;3.40;;
4424;SDS011;2225;53.568;13.266;2023-05-10T11:58:53;8.33;;;3.13;;
4424;SDS011;2225;53.568;13.266;2023-05-10T12:01:26;8.70;;;3.43;;
4424;SDS011;2225;53.568;13.266;2023-05-10T12:03:55;10.00;;;3.73;;
4424;SDS011;2225;53.568;13.266;2023-05-10T12:06:26;8.93;;;3.20;;
4424;SDS011;2225;53.568;13.266;2023-05-10T12:08:58;12.00;;;3.57;;
4424;SDS011;2225;53.568;13.266;2023-05-10T12:11:26;9.00;;;3.97;;
4424;SDS011;2225;53.568;13.266;2023-05-10T12:13:55;10.87;;;3.13;;
4424;SDS011;2225;53.568;13.266;2023-05-10T12:16:23;14.17;;;3.03;;
4424;SDS011;2225;53.568;13.266;2023-05-10T12:18:58;7.97;;;3.47;;
4424;SDS011;2225;53.568;13.266;2023-05-10T12:21:27;7.57;;;3.20;;
4424;SDS011;2225;53.568;13.266;2023-05-10T12:23:59;10.97;;;3.60;;
4424;SDS011;2225;53.568;13.266;2023-05-10T12:26:29;12.70;;;3.80;;
4424;SDS011;2225;53.568;13.266;2023-05-10T12:29:12;7.00;;;3.07;;
4424;SDS011;2225;53.568;13.266;2023-05-10T12:31:52;8.77;;;3.60;;
4424;SDS011;2225;53.568;13.266;2023-05-10T12:36:58;64.80;;;3.87;;
4424;SDS011;2225;53.568;13.266;2023-05-10T12:39:25;8.83;;;3.30;;
4424;SDS011;2225;53.568;13.266;2023-05-10T12:42:04;14.03;;;3.60;;
4424;SDS011;2225;53.568;13.266;2023-05-10T12:44:32;8.60;;;3.03;;
4424;SDS011;2225;53.568;13.266;2023-05-10T12:46:59;8.80;;;3.33;;
4424;SDS011;2225;53.568;13.266;2023-05-10T12:49:26;8.40;;;3.23;;
4424;SDS011;2225;53.568;13.266;2023-05-10T12:51:53;10.47;;;3.10;;
4424;SDS011;2225;53.568;13.266;2023-05-10T12:54:19;10.90;;;3.87;;
4424;SDS011;2225;53.568;13.266;2023-05-10T12:56:46;11.23;;;3.90;;
4424;SDS011;2225;53.568;13.266;2023-05-10T12:59:13;10.37;;;3.93;;
4424;SDS011;2225;53.568;13.266;2023-05-10T13:01:40;9.30;;;3.67;;
4424;SDS011;2225;53.568;13.266;2023-05-10T13:04:07;12.80;;;3.93;;
4424;SDS011;2225;53.568;13.266;2023-05-10T13:06:34;12.27;;;3.50;;
4424;SDS011;2225;53.568;13.266;2023-05-10T13:09:01;8.90;;;3.60;;
4424;SDS011;2225;53.568;13.266;2023-05-10T13:11:28;11.23;;;3.40;;
4424;SDS011;2225;53.568;13.266;2023-05-10T13:13:55;29.23;;;4.07;;
4424;SDS011;2225;53.568;13.266;2023-05-10T13:16:22;13.50;;;4.10;;
4424;SDS011;2225;53.568;13.266;2023-05-10T13:18:49;17.33;;;3.77;;
4424;SDS011;2225;53.568;13.266;2023-05-10T13:21:16;8.53;;;3.43;;
4424;SDS011;2225;53.568;13.266;2023-05-10T13:23:43;8.80;;;3.70;;
4424;SDS011;2225;53.568;13.266;2023-05-10T13:26:10;14.17;;;3.80;;
4424;SDS011;2225;53.568;13.266;2023-05-10T13:28:37;12.13;;;3.80;;
4424;SDS011;2225;53.568;13.266;2023-05-10T13:31:04;11.03;;;3.80;;
4424;SDS011;2225;53.568;13.266;2023-05-10T13:33:31;8.17;;;4.03;;
4424;SDS011;2225;53.568;13.266;2023-05-10T13:35:58;6.67;;;3.17;;
4424;SDS011;2225;53.568;13.266;2023-05-10T13:38:25;15.60;;;3.87;;
4424;SDS011;2225;53.568;13.266;2023-05-10T13:40:52;8.37;;;3.30;;
4424;SDS011;2225;53.568;13.266;2023-05-10T13:43:19;23.33;;;3.90;;
4424;SDS011;2225;53.568;13.266;2023-05-10T13:45:46;7.77;;;3.27;;
4424;SDS011;2225;53.568;13.266;2023-05-10T13:48:13;8.27;;;3.27;;
4424;SDS011;2225;53.568;13.266;2023-05-10T13:50:40;7.60;;;3.03;;
4424;SDS011;2225;53.568;13.266;2023-05-10T13:53:07;12.40;;;3.23;;
4424;SDS011;2225;53.568;13.266;2023-05-10T13:55:34;7.40;;;3.37;;
4424;SDS011;2225;53.568;13.266;2023-05-10T13:58:01;12.17;;;3.90;;
4424;SDS011;2225;53.568;13.266;2023-05-10T14:00:28;6.43;;;3.50;;
4424;SDS011;2225;53.568;13.266;2023-05-10T14:02:55;7.50;;;3.40;;
4424;SDS011;2225;53.568;13.266;2023-05-10T14:05:22;20.60;;;3.77;;
4424;SDS011;2225;53.568;13.266;2023-05-10T14:07:51;13.63;;;3.20;;
4424;SDS011;2225;53.568;13.266;2023-05-10T14:10:18;7.37;;;3.70;;
4424;SDS011;2225;53.568;13.266;2023-05-10T14:12:45;6.57;;;3.40;;
4424;SDS011;2225;53.568;13.266;2023-05-10T14:15:12;10.63;;;4.10;;
4424;SDS011;2225;53.568;13.266;2023-05-10T14:17:39;9.33;;;3.30;;
4424;SDS011;2225;53.568;13.266;2023-05-10T14:20:06;8.00;;;3.60;;
4424;SDS011;2225;53.568;13.266;2023-05-10T14:22:34;7.10;;;3.33;;
4424;SDS011;2225;53.568;13.266;2023-05-10T14:25:01;14.00;;;4.37;;
4424;SDS011;2225;53.568;13.266;2023-05-10T14:27:28;17.10;;;4.53;;
4424;SDS011;2225;53.568;13.266;2023-05-10T14:29:56;9.30;;;3.40;;
4424;SDS011;2225;53.568;13.266;2023-05-10T14:32:23;8.00;;;3.90;;
4424;SDS011;2225;53.568;13.266;2023-05-10T14:34:50;14.33;;;3.87;;
4424;SDS011;2225;53.568;13.266;2023-05-10T14:37:17;9.77;;;3.40;;
4424;SDS011;2225;53.568;13.266;2023-05-10T14:39:44;9.53;;;3.50;;
4424;SDS011;2225;53.568;13.266;2023-05-10T14:42:11;6.57;;;3.30;;
4424;SDS011;2225;53.568;13.266;2023-05-10T14:44:38;6.53;;;3.23;;
4424;SDS011;2225;53.568;13.266;2023-05-10T14:47:05;7.97;;;3.43;;
4424;SDS011;2225;53.568;13.266;2023-05-10T14:49:34;8.40;;;3.80;;
4424;SDS011;2225;53.568;13.266;2023-05-10T14:52:00;8.53;;;3.40;;
4424;SDS011;2225;53.568;13.266;2023-05-10T14:54:27;6.80;;;2.97;;
4424;SDS011;2225;53.568;13.266;2023-05-10T14:56:54;13.13;;;3.23;;
4424;SDS011;2225;53.568;13.266;2023-05-10T14:59:21;8.13;;;3.33;;
4424;SDS011;2225;53.568;13.266;2023-05-10T15:01:48;9.57;;;4.13;;
4424;SDS011;2225;53.568;13.266;2023-05-10T15:04:16;6.60;;;2.93;;
4424;SDS011;2225;53.568;13.266;2023-05-10T15:06:43;13.43;;;3.73;;
4424;SDS011;2225;53.568;13.266;2023-05-10T15:09:10;7.77;;;3.40;;
4424;SDS011;2225;53.568;13.266;2023-05-10T15:11:37;8.27;;;3.97;;
4424;SDS011;2225;53.568;13.266;2023-05-10T15:14:04;8.87;;;3.67;;
4424;SDS011;2225;53.568;13.266;2023-05-10T15:16:31;9.80;;;3.20;;
4424;SDS011;2225;53.568;13.266;2023-05-10T15:19:01;20.60;;;3.67;;
4424;SDS011;2225;53.568;13.266;2023-05-10T15:21:28;9.03;;;3.23;;
4424;SDS011;2225;53.568;13.266;2023-05-10T15:23:56;6.50;;;3.17;;
4424;SDS011;2225;53.568;13.266;2023-05-10T15:26:23;6.73;;;2.77;;
4424;SDS011;2225;53.568;13.266;2023-05-10T15:28:52;8.70;;;3.27;;
4424;SDS011;2225;53.568;13.266;2023-05-10T15:31:19;13.73;;;2.60;;
4424;SDS011;2225;53.568;13.266;2023-05-10T15:33:46;13.73;;;3.47;;
4424;SDS011;2225;53.568;13.266;2023-05-10T15:36:13;12.13;;;3.50;;
4424;SDS011;2225;53.568;13.266;2023-05-10T15:38:40;11.60;;;3.20;;
4424;SDS011;2225;53.568;13.266;2023-05-10T15:41:07;17.07;;;3.30;;